createdAt,value
2023-07-26T00:00:24.188Z,19.52
2023-07-26T00:00:54.207Z,19.51
2023-07-26T00:01:24.231Z,19.5
2023-07-26T00:01:54.204Z,19.49
2023-07-26T00:02:24.252Z,19.48
2023-07-26T00:02:54.205Z,19.47
2023-07-26T00:03:24.199Z,19.45
2023-07-26T00:03:54.247Z,19.45
2023-07-26T00:04:24.194Z,19.45
2023-07-26T00:04:54.188Z,19.44
2023-07-26T00:05:24.219Z,19.42
2023-07-26T00:05:54.194Z,19.41
2023-07-26T00:06:24.190Z,19.4
2023-07-26T00:06:54.192Z,19.4
2023-07-26T00:07:24.195Z,19.4
2023-07-26T00:07:54.205Z,19.4
2023-07-26T00:08:24.189Z,19.41
2023-07-26T00:08:54.185Z,19.4
2023-07-26T00:09:24.191Z,19.4
2023-07-26T00:09:54.189Z,19.4
2023-07-26T00:10:24.205Z,19.4
2023-07-26T00:10:54.205Z,19.4
2023-07-26T00:11:24.190Z,19.4
2023-07-26T00:11:54.190Z,19.4
2023-07-26T00:12:24.198Z,19.4
2023-07-26T00:12:54.212Z,19.39
2023-07-26T00:13:24.190Z,19.39
2023-07-26T00:13:54.220Z,19.39
2023-07-26T00:14:24.203Z,19.39
2023-07-26T00:14:54.193Z,19.39
2023-07-26T00:15:24.211Z,19.41
2023-07-26T00:15:54.225Z,19.42
2023-07-26T00:16:24.270Z,19.42
2023-07-26T00:16:54.192Z,19.43
2023-07-26T00:17:24.234Z,19.44
2023-07-26T00:17:54.240Z,19.45
2023-07-26T00:18:24.191Z,19.46
2023-07-26T00:18:54.201Z,19.46
2023-07-26T00:19:24.199Z,19.46
2023-07-26T00:19:54.192Z,19.47
2023-07-26T00:20:24.198Z,19.48
2023-07-26T00:20:54.195Z,19.49
2023-07-26T00:21:24.190Z,19.5
2023-07-26T00:21:54.189Z,19.51
2023-07-26T00:22:24.197Z,19.53
2023-07-26T00:22:54.205Z,19.54
2023-07-26T00:23:24.195Z,19.55
2023-07-26T00:23:54.214Z,19.56
2023-07-26T00:24:24.224Z,19.57
2023-07-26T00:24:54.214Z,19.58
2023-07-26T00:25:24.196Z,19.59
2023-07-26T00:25:54.194Z,19.61
2023-07-26T00:26:24.209Z,19.63
2023-07-26T00:26:54.195Z,19.67
2023-07-26T00:27:24.195Z,19.71
2023-07-26T00:27:54.194Z,19.76
2023-07-26T00:28:24.195Z,19.79
2023-07-26T00:28:54.212Z,19.81
2023-07-26T00:29:24.192Z,19.84
2023-07-26T00:29:54.234Z,19.88
2023-07-26T00:30:24.260Z,19.93
2023-07-26T00:30:54.230Z,19.98
2023-07-26T00:31:24.231Z,20.02
2023-07-26T00:31:54.226Z,20.05
2023-07-26T00:32:24.221Z,20.07
2023-07-26T00:32:54.246Z,20.09
2023-07-26T00:33:24.225Z,20.09
2023-07-26T00:33:54.199Z,20.09
2023-07-26T00:34:24.194Z,20.1
2023-07-26T00:34:54.217Z,20.12
2023-07-26T00:35:24.202Z,20.14
2023-07-26T00:35:54.195Z,20.17
2023-07-26T00:36:24.195Z,20.2
2023-07-26T00:36:54.199Z,20.23
2023-07-26T00:37:24.196Z,20.32
2023-07-26T00:37:54.211Z,20.4
2023-07-26T00:38:24.205Z,20.45
2023-07-26T00:38:54.203Z,20.47
2023-07-26T00:39:24.199Z,20.48
2023-07-26T00:39:54.198Z,20.48
2023-07-26T00:40:24.247Z,20.48
2023-07-26T00:40:54.203Z,20.48
2023-07-26T00:41:24.206Z,20.46
2023-07-26T00:41:54.207Z,20.44
2023-07-26T00:42:24.202Z,20.42
2023-07-26T00:42:54.208Z,20.42
2023-07-26T00:43:24.199Z,20.41
2023-07-26T00:43:54.201Z,20.4
2023-07-26T00:44:24.206Z,20.39
2023-07-26T00:44:54.201Z,20.39
2023-07-26T00:45:24.206Z,20.38
2023-07-26T00:45:54.204Z,20.37
2023-07-26T00:46:24.247Z,20.38
2023-07-26T00:46:54.243Z,20.41
2023-07-26T00:47:24.205Z,20.43
2023-07-26T00:47:54.236Z,20.44
2023-07-26T00:48:24.219Z,20.45
2023-07-26T00:48:54.221Z,20.45
2023-07-26T00:49:24.202Z,20.45
2023-07-26T00:49:54.213Z,20.45
2023-07-26T00:50:24.208Z,20.44
2023-07-26T00:50:54.201Z,20.44
2023-07-26T00:51:24.207Z,20.43
2023-07-26T00:51:54.211Z,20.45
2023-07-26T00:52:24.207Z,20.45
2023-07-26T00:52:54.211Z,20.45
2023-07-26T00:53:24.207Z,20.44
2023-07-26T00:53:54.204Z,20.44
2023-07-26T00:54:24.207Z,20.45
2023-07-26T00:54:54.210Z,20.47
2023-07-26T00:55:24.207Z,20.49
2023-07-26T00:55:54.227Z,20.5
2023-07-26T00:56:24.205Z,20.52
2023-07-26T00:56:54.213Z,20.54
2023-07-26T00:57:24.209Z,20.55
2023-07-26T00:57:54.219Z,20.56
2023-07-26T00:58:24.208Z,20.58
2023-07-26T00:58:54.212Z,20.6
2023-07-26T00:59:24.207Z,20.61
2023-07-26T00:59:54.210Z,20.64
2023-07-26T01:00:24.206Z,20.66
2023-07-26T01:00:54.261Z,20.66
2023-07-26T01:01:24.264Z,20.68
2023-07-26T01:01:54.231Z,20.68
2023-07-26T01:02:24.300Z,20.69
2023-07-26T01:02:54.299Z,20.69
2023-07-26T01:03:24.231Z,20.69
2023-07-26T01:03:54.214Z,20.69
2023-07-26T01:04:24.211Z,20.7
2023-07-26T01:04:54.236Z,20.7
2023-07-26T01:05:24.220Z,20.72
2023-07-26T01:05:54.238Z,20.73
2023-07-26T01:06:24.226Z,20.74
2023-07-26T01:06:54.240Z,20.75
2023-07-26T01:07:24.220Z,20.75
2023-07-26T01:07:54.215Z,20.74
2023-07-26T01:08:24.210Z,20.74
2023-07-26T01:08:54.219Z,20.72
2023-07-26T01:09:24.222Z,20.72
2023-07-26T01:09:54.211Z,20.71
2023-07-26T01:10:24.210Z,20.7
2023-07-26T01:10:54.213Z,20.7
2023-07-26T01:11:24.214Z,20.7
2023-07-26T01:11:54.222Z,20.69
2023-07-26T01:12:24.217Z,20.69
2023-07-26T01:12:54.213Z,20.7
2023-07-26T01:13:24.212Z,20.71
2023-07-26T01:13:54.221Z,20.73
2023-07-26T01:14:24.214Z,20.74
2023-07-26T01:14:54.349Z,20.75
2023-07-26T01:15:24.225Z,20.76
2023-07-26T01:15:54.227Z,20.76
2023-07-26T01:16:24.213Z,20.75
2023-07-26T01:16:54.274Z,20.75
2023-07-26T01:17:24.243Z,20.73
2023-07-26T01:17:54.268Z,20.73
2023-07-26T01:18:24.228Z,20.72
2023-07-26T01:18:54.223Z,20.72
2023-07-26T01:19:24.230Z,20.71
2023-07-26T01:19:54.222Z,20.7
2023-07-26T01:20:24.218Z,20.7
2023-07-26T01:20:54.229Z,20.69
2023-07-26T01:21:24.219Z,20.69
2023-07-26T01:21:54.237Z,20.7
2023-07-26T01:22:24.223Z,20.71
2023-07-26T01:22:54.226Z,20.71
2023-07-26T01:23:24.218Z,20.72
2023-07-26T01:23:54.225Z,20.73
2023-07-26T01:24:24.306Z,20.73
2023-07-26T01:24:54.261Z,20.75
2023-07-26T01:25:24.218Z,20.76
2023-07-26T01:25:54.223Z,20.77
2023-07-26T01:26:24.217Z,20.79
2023-07-26T01:26:54.223Z,20.8
2023-07-26T01:27:24.219Z,20.81
2023-07-26T01:27:54.229Z,20.82
2023-07-26T01:28:24.221Z,20.82
2023-07-26T01:28:54.267Z,20.83
2023-07-26T01:29:24.879Z,20.84
2023-07-26T01:29:54.230Z,20.85
2023-07-26T01:30:24.244Z,20.85
2023-07-26T01:30:54.263Z,20.86
2023-07-26T01:31:24.326Z,20.87
2023-07-26T01:31:54.234Z,20.87
2023-07-26T01:32:24.250Z,20.87
2023-07-26T01:32:54.257Z,20.87
2023-07-26T01:33:24.233Z,20.86
2023-07-26T01:33:54.241Z,20.84
2023-07-26T01:34:24.227Z,20.83
2023-07-26T01:34:54.234Z,20.83
2023-07-26T01:35:24.227Z,20.82
2023-07-26T01:35:54.234Z,20.82
2023-07-26T01:36:24.255Z,20.82
2023-07-26T01:36:54.227Z,20.82
2023-07-26T01:37:24.241Z,20.82
2023-07-26T01:37:54.235Z,20.84
2023-07-26T01:38:24.228Z,20.85
2023-07-26T01:38:54.233Z,20.87
2023-07-26T01:39:24.225Z,20.88
2023-07-26T01:39:54.238Z,20.89
2023-07-26T01:40:24.230Z,20.88
2023-07-26T01:40:54.227Z,20.88
2023-07-26T01:41:24.245Z,20.88
2023-07-26T01:41:54.239Z,20.87
2023-07-26T01:42:24.229Z,20.88
2023-07-26T01:42:54.228Z,20.88
2023-07-26T01:43:24.226Z,20.88
2023-07-26T01:43:54.228Z,20.88
2023-07-26T01:44:24.229Z,20.88
2023-07-26T01:44:54.233Z,20.88
2023-07-26T01:45:24.228Z,20.89
2023-07-26T01:45:54.270Z,20.89
2023-07-26T01:46:24.258Z,20.88
2023-07-26T01:46:54.265Z,20.89
2023-07-26T01:47:24.272Z,20.91
2023-07-26T01:47:54.310Z,21.01
2023-07-26T01:48:24.230Z,21.09
2023-07-26T01:48:54.270Z,21.11
2023-07-26T01:49:24.250Z,21.11
2023-07-26T01:49:54.255Z,21.09
2023-07-26T01:50:24.228Z,21.07
2023-07-26T01:50:54.230Z,21.04
2023-07-26T01:51:24.238Z,21.03
2023-07-26T01:51:54.231Z,21.02
2023-07-26T01:52:24.234Z,21.02
2023-07-26T01:52:54.257Z,21.02
2023-07-26T01:53:24.242Z,21.03
2023-07-26T01:53:54.295Z,21.04
2023-07-26T01:54:24.232Z,21.06
2023-07-26T01:54:54.232Z,21.09
2023-07-26T01:55:24.241Z,21.1
2023-07-26T01:55:54.258Z,21.11
2023-07-26T01:56:24.230Z,21.13
2023-07-26T01:56:54.228Z,21.15
2023-07-26T01:57:24.240Z,21.17
2023-07-26T01:57:54.228Z,21.18
2023-07-26T01:58:24.232Z,21.19
2023-07-26T01:58:54.235Z,21.19
2023-07-26T01:59:24.250Z,21.19
2023-07-26T01:59:54.240Z,21.19
2023-07-26T02:00:24.254Z,21.21
2023-07-26T02:00:54.228Z,21.22
2023-07-26T02:01:24.248Z,21.25
2023-07-26T02:01:54.578Z,21.28
2023-07-26T02:02:24.264Z,21.33
2023-07-26T02:02:54.264Z,21.37
2023-07-26T02:03:24.234Z,21.42
2023-07-26T02:03:54.256Z,21.45
2023-07-26T02:04:24.273Z,21.46
2023-07-26T02:04:54.258Z,21.46
2023-07-26T02:05:24.233Z,21.47
2023-07-26T02:05:54.239Z,21.49
2023-07-26T02:06:24.236Z,21.5
2023-07-26T02:06:54.238Z,21.51
2023-07-26T02:07:24.239Z,21.51
2023-07-26T02:07:54.257Z,21.51
2023-07-26T02:08:24.237Z,21.52
2023-07-26T02:08:54.238Z,21.54
2023-07-26T02:09:24.238Z,21.54
2023-07-26T02:09:54.237Z,21.55
2023-07-26T02:10:24.237Z,21.58
2023-07-26T02:10:54.250Z,21.61
2023-07-26T02:11:24.261Z,21.64
2023-07-26T02:11:54.249Z,21.67
2023-07-26T02:12:24.243Z,21.67
2023-07-26T02:12:54.236Z,21.68
2023-07-26T02:13:24.235Z,21.71
2023-07-26T02:13:54.238Z,21.74
2023-07-26T02:14:24.243Z,21.77
2023-07-26T02:14:54.245Z,21.79
2023-07-26T02:15:24.235Z,21.8
2023-07-26T02:15:54.262Z,21.83
2023-07-26T02:16:24.306Z,21.87
2023-07-26T02:16:54.248Z,21.91
2023-07-26T02:17:24.272Z,21.95
2023-07-26T02:17:54.254Z,22.01
2023-07-26T02:18:24.270Z,22.06
2023-07-26T02:18:54.250Z,22.11
2023-07-26T02:19:24.240Z,22.17
2023-07-26T02:19:54.242Z,22.22
2023-07-26T02:20:24.241Z,22.26
2023-07-26T02:20:54.250Z,22.3
2023-07-26T02:21:24.260Z,22.34
2023-07-26T02:21:54.242Z,22.37
2023-07-26T02:22:24.241Z,22.42
2023-07-26T02:22:54.250Z,22.43
2023-07-26T02:23:24.258Z,22.43
2023-07-26T02:23:54.243Z,22.38
2023-07-26T02:24:24.273Z,22.4
2023-07-26T02:24:54.282Z,22.44
2023-07-26T02:25:24.257Z,22.49
2023-07-26T02:25:54.265Z,22.51
2023-07-26T02:26:24.248Z,22.55
2023-07-26T02:26:54.254Z,22.59
2023-07-26T02:27:24.253Z,22.62
2023-07-26T02:27:54.248Z,22.65
2023-07-26T02:28:24.250Z,22.69
2023-07-26T02:28:54.251Z,22.7
2023-07-26T02:29:24.248Z,22.72
2023-07-26T02:29:54.242Z,22.75
2023-07-26T02:30:24.271Z,22.79
2023-07-26T02:30:54.250Z,22.83
2023-07-26T02:31:24.289Z,22.9
2023-07-26T02:31:54.284Z,22.95
2023-07-26T02:32:24.267Z,23.01
2023-07-26T02:32:54.284Z,23.08
2023-07-26T02:33:24.258Z,23.12
2023-07-26T02:33:54.252Z,23.15
2023-07-26T02:34:24.267Z,23.18
2023-07-26T02:34:54.260Z,23.23
2023-07-26T02:35:24.249Z,23.29
2023-07-26T02:35:54.259Z,23.34
2023-07-26T02:36:24.250Z,23.38
2023-07-26T02:36:54.251Z,23.43
2023-07-26T02:37:24.248Z,23.44
2023-07-26T02:37:54.256Z,23.48
2023-07-26T02:38:24.248Z,23.5
2023-07-26T02:38:54.255Z,23.55
2023-07-26T02:39:24.252Z,23.57
2023-07-26T02:39:54.251Z,23.56
2023-07-26T02:40:24.248Z,23.6
2023-07-26T02:40:54.250Z,23.6
2023-07-26T02:41:24.264Z,23.58
2023-07-26T02:41:54.246Z,23.59
2023-07-26T02:42:24.249Z,23.61
2023-07-26T02:42:55.906Z,23.66
2023-07-26T02:43:39.874Z,23.66
2023-07-26T02:43:55.394Z,23.65
2023-07-26T02:44:24.249Z,23.61
2023-07-26T02:44:54.259Z,23.58
2023-07-26T02:45:24.276Z,23.59
2023-07-26T02:45:54.324Z,23.63
2023-07-26T02:46:24.277Z,23.71
2023-07-26T02:46:54.255Z,23.8
2023-07-26T02:47:24.278Z,23.86
2023-07-26T02:47:54.314Z,23.88
2023-07-26T02:48:24.270Z,23.91
2023-07-26T02:48:54.279Z,23.97
2023-07-26T02:49:24.257Z,24.02
2023-07-26T02:49:54.263Z,24.05
2023-07-26T02:50:24.261Z,24.1
2023-07-26T02:50:54.254Z,24.17
2023-07-26T02:51:24.260Z,24.22
2023-07-26T02:51:54.256Z,24.28
2023-07-26T02:52:24.272Z,24.33
2023-07-26T02:52:54.257Z,24.38
2023-07-26T02:53:24.259Z,24.4
2023-07-26T02:53:54.266Z,24.44
2023-07-26T02:54:24.299Z,24.41
2023-07-26T02:54:54.324Z,24.41
2023-07-26T02:55:24.259Z,24.4
2023-07-26T02:55:54.257Z,24.34
2023-07-26T02:56:24.264Z,24.33
2023-07-26T02:56:54.261Z,24.33
2023-07-26T02:57:24.260Z,24.34
2023-07-26T02:57:54.265Z,24.31
2023-07-26T02:58:24.260Z,24.24
2023-07-26T02:58:54.261Z,24.24
2023-07-26T02:59:24.262Z,24.27
2023-07-26T02:59:54.264Z,24.34
2023-07-26T03:00:24.262Z,24.42
2023-07-26T03:00:54.274Z,24.46
2023-07-26T03:01:24.276Z,24.49
2023-07-26T03:01:54.314Z,24.5
2023-07-26T03:02:24.340Z,24.5
2023-07-26T03:02:54.324Z,24.55
2023-07-26T03:03:24.371Z,24.62
2023-07-26T03:03:54.286Z,24.69
2023-07-26T03:04:24.270Z,24.74
2023-07-26T03:04:54.274Z,24.76
2023-07-26T03:05:24.260Z,24.77
2023-07-26T03:05:54.262Z,24.81
2023-07-26T03:06:24.269Z,24.86
2023-07-26T03:06:54.281Z,24.87
2023-07-26T03:07:24.261Z,24.81
2023-07-26T03:07:54.276Z,24.77
2023-07-26T03:08:24.260Z,24.76
2023-07-26T03:08:54.264Z,24.79
2023-07-26T03:09:24.264Z,24.82
2023-07-26T03:09:54.277Z,24.82
2023-07-26T03:10:24.284Z,24.78
2023-07-26T03:10:54.269Z,24.76
2023-07-26T03:11:24.273Z,24.71
2023-07-26T03:11:54.269Z,24.71
2023-07-26T03:12:24.268Z,24.63
2023-07-26T03:12:54.264Z,24.54
2023-07-26T03:13:24.279Z,24.53
2023-07-26T03:13:54.271Z,24.57
2023-07-26T03:14:24.268Z,24.57
2023-07-26T03:14:54.274Z,24.56
2023-07-26T03:15:24.273Z,24.57
2023-07-26T03:15:54.334Z,24.62
2023-07-26T03:16:24.321Z,24.65
2023-07-26T03:16:55.323Z,24.64
2023-07-26T03:17:25.535Z,24.63
2023-07-26T03:17:54.311Z,24.69
2023-07-26T03:18:24.277Z,24.73
2023-07-26T03:18:54.270Z,24.85
2023-07-26T03:19:24.277Z,24.97
2023-07-26T03:19:54.298Z,25.02
2023-07-26T03:20:24.274Z,25.07
2023-07-26T03:20:54.265Z,25.11
2023-07-26T03:21:24.267Z,25.15
2023-07-26T03:21:54.273Z,25.18
2023-07-26T03:22:24.273Z,25.22
2023-07-26T03:22:54.273Z,25.29
2023-07-26T03:23:24.272Z,25.28
2023-07-26T03:23:54.316Z,25.29
2023-07-26T03:24:24.323Z,25.32
2023-07-26T03:24:54.290Z,25.34
2023-07-26T03:25:24.271Z,25.41
2023-07-26T03:25:54.271Z,25.48
2023-07-26T03:26:24.269Z,25.53
2023-07-26T03:26:54.276Z,25.5
2023-07-26T03:27:24.944Z,25.48
2023-07-26T03:27:54.272Z,25.47
2023-07-26T03:28:24.267Z,25.53
2023-07-26T03:28:54.278Z,25.62
2023-07-26T03:29:24.274Z,25.72
2023-07-26T03:29:54.282Z,25.82
2023-07-26T03:30:24.293Z,25.85
2023-07-26T03:30:54.276Z,25.86
2023-07-26T03:31:24.281Z,25.82
2023-07-26T03:31:54.278Z,25.77
2023-07-26T03:32:24.272Z,25.73
2023-07-26T03:32:54.381Z,25.71
2023-07-26T03:33:24.271Z,25.68
2023-07-26T03:33:54.301Z,25.62
2023-07-26T03:34:24.303Z,25.57
2023-07-26T03:34:54.274Z,25.48
2023-07-26T03:35:24.280Z,25.32
2023-07-26T03:35:54.281Z,25.17
2023-07-26T03:36:24.282Z,25.06
2023-07-26T03:36:54.281Z,24.93
2023-07-26T03:37:24.270Z,24.8
2023-07-26T03:37:54.271Z,24.7
2023-07-26T03:38:24.287Z,24.62
2023-07-26T03:38:54.273Z,24.58
2023-07-26T03:39:24.284Z,24.58
2023-07-26T03:39:54.279Z,24.59
2023-07-26T03:40:24.274Z,24.61
2023-07-26T03:40:54.279Z,24.57
2023-07-26T03:41:24.284Z,24.55
2023-07-26T03:41:54.278Z,24.57
2023-07-26T03:42:24.280Z,24.58
2023-07-26T03:42:54.297Z,24.55
2023-07-26T03:43:24.275Z,24.5
2023-07-26T03:43:54.286Z,24.36
2023-07-26T03:44:24.294Z,24.24
2023-07-26T03:44:54.288Z,24.1
2023-07-26T03:45:24.314Z,24
2023-07-26T03:45:54.305Z,23.92
2023-07-26T03:46:24.278Z,23.84
2023-07-26T03:46:54.273Z,23.77
2023-07-26T03:47:24.277Z,23.7
2023-07-26T03:47:54.303Z,23.61
2023-07-26T03:48:24.276Z,23.54
2023-07-26T03:48:54.291Z,23.48
2023-07-26T03:49:24.296Z,23.44
2023-07-26T03:49:54.279Z,23.38
2023-07-26T03:50:24.290Z,23.3
2023-07-26T03:50:54.289Z,23.24
2023-07-26T03:51:24.284Z,23.21
2023-07-26T03:51:54.283Z,23.19
2023-07-26T03:52:24.289Z,23.21
2023-07-26T03:52:54.290Z,23.25
2023-07-26T03:53:24.289Z,23.26
2023-07-26T03:53:54.301Z,23.27
2023-07-26T03:54:24.281Z,23.28
2023-07-26T03:54:54.290Z,23.3
2023-07-26T03:55:24.291Z,23.34
2023-07-26T03:55:54.279Z,23.47
2023-07-26T03:56:24.283Z,23.63
2023-07-26T03:56:54.280Z,23.82
2023-07-26T03:57:24.280Z,24.04
2023-07-26T03:57:54.294Z,24.37
2023-07-26T03:58:24.286Z,24.94
2023-07-26T03:58:54.294Z,25.73
2023-07-26T03:59:24.284Z,26.75
2023-07-26T03:59:54.295Z,27.79
2023-07-26T04:00:24.289Z,28.77
2023-07-26T04:00:54.312Z,29.42
2023-07-26T04:01:24.305Z,29.68
2023-07-26T04:01:54.298Z,29.81
2023-07-26T04:02:24.394Z,29.82
2023-07-26T04:02:54.408Z,30.01
2023-07-26T04:03:24.469Z,30.41
2023-07-26T04:03:54.410Z,31.05
2023-07-26T04:04:24.298Z,31.63
2023-07-26T04:04:54.288Z,32.26
2023-07-26T04:05:24.300Z,33.02
2023-07-26T04:05:54.300Z,33.92
2023-07-26T04:06:24.310Z,34.7
2023-07-26T04:06:54.307Z,35.29
2023-07-26T04:07:24.290Z,35.89
2023-07-26T04:07:54.288Z,36.42
2023-07-26T04:08:24.292Z,36.81
2023-07-26T04:08:54.296Z,37.12
2023-07-26T04:09:24.290Z,37.34
2023-07-26T04:09:54.296Z,37.49
2023-07-26T04:10:24.300Z,37.75
2023-07-26T04:10:54.299Z,38.21
2023-07-26T04:11:24.301Z,38.78
2023-07-26T04:11:54.291Z,38.97
2023-07-26T04:12:24.289Z,39
2023-07-26T04:12:54.294Z,39.05
2023-07-26T04:13:24.290Z,38.98
2023-07-26T04:13:54.292Z,38.64
2023-07-26T04:14:24.298Z,38.15
2023-07-26T04:14:54.294Z,37.65
2023-07-26T04:15:24.298Z,37.38
2023-07-26T04:15:54.341Z,37.4
2023-07-26T04:16:24.351Z,37.75
2023-07-26T04:16:54.306Z,38.18
2023-07-26T04:17:24.353Z,38.78
2023-07-26T04:17:54.331Z,39.06
2023-07-26T04:18:24.302Z,39.12
2023-07-26T04:18:54.298Z,39.25
2023-07-26T04:19:24.294Z,39.52
2023-07-26T04:19:54.306Z,39.78
2023-07-26T04:20:24.299Z,40.04
2023-07-26T04:20:54.310Z,40.16
2023-07-26T04:21:24.307Z,40.44
2023-07-26T04:21:54.313Z,40.81
2023-07-26T04:22:24.300Z,41.34
2023-07-26T04:22:54.330Z,41.92
2023-07-26T04:23:24.318Z,42.46
2023-07-26T04:23:54.300Z,42.6
2023-07-26T04:24:24.354Z,42.38
2023-07-26T04:24:54.336Z,42.21
2023-07-26T04:25:24.299Z,42
2023-07-26T04:25:54.314Z,42.02
2023-07-26T04:26:24.299Z,42.03
2023-07-26T04:26:54.308Z,41.95
2023-07-26T04:27:24.300Z,41.84
2023-07-26T04:27:54.300Z,41.62
2023-07-26T04:28:24.303Z,41.39
2023-07-26T04:28:54.310Z,41.38
2023-07-26T04:29:24.301Z,41.7
2023-07-26T04:29:54.299Z,41.57
2023-07-26T04:30:24.300Z,41.28
2023-07-26T04:30:55.180Z,41.02
2023-07-26T04:31:24.342Z,40.49
2023-07-26T04:31:54.303Z,40.16
2023-07-26T04:32:24.327Z,40
2023-07-26T04:32:54.479Z,40.06
2023-07-26T04:33:24.321Z,40.04
2023-07-26T04:33:54.379Z,39.85
2023-07-26T04:34:24.302Z,39.55
2023-07-26T04:34:54.303Z,39.41
2023-07-26T04:35:24.308Z,39.38
2023-07-26T04:35:54.312Z,39.57
2023-07-26T04:36:24.306Z,39.93
2023-07-26T04:36:54.305Z,40.2
2023-07-26T04:37:24.316Z,40.21
2023-07-26T04:37:54.302Z,39.93
2023-07-26T04:38:24.302Z,39.57
2023-07-26T04:38:54.303Z,38.87
2023-07-26T04:39:24.318Z,38.14
2023-07-26T04:39:54.311Z,37.74
2023-07-26T04:40:24.311Z,37.67
2023-07-26T04:40:54.305Z,37.7
2023-07-26T04:41:24.312Z,37.88
2023-07-26T04:41:54.307Z,38.16
2023-07-26T04:42:24.316Z,38.48
2023-07-26T04:42:54.305Z,38.88
2023-07-26T04:43:24.347Z,39.04
2023-07-26T04:43:54.302Z,39.2
2023-07-26T04:44:24.320Z,39.5
2023-07-26T04:44:54.314Z,39.58
2023-07-26T04:45:24.318Z,39.63
2023-07-26T04:45:54.323Z,39.45
2023-07-26T04:46:24.356Z,39
2023-07-26T04:46:54.332Z,38.74
2023-07-26T04:47:24.306Z,38.75
2023-07-26T04:47:54.339Z,38.6
2023-07-26T04:48:24.307Z,38.41
2023-07-26T04:48:54.321Z,38.17
2023-07-26T04:49:24.307Z,38.16
2023-07-26T04:49:54.306Z,38.43
2023-07-26T04:50:24.314Z,38.69
2023-07-26T04:50:54.319Z,38.79
2023-07-26T04:51:24.308Z,38.78
2023-07-26T04:51:54.331Z,38.8
2023-07-26T04:52:24.316Z,38.78
2023-07-26T04:52:54.325Z,38.38
2023-07-26T04:53:24.318Z,38.06
2023-07-26T04:53:54.320Z,37.84
2023-07-26T04:54:24.311Z,37.8
2023-07-26T04:54:54.318Z,37.74
2023-07-26T04:55:24.313Z,37.55
2023-07-26T04:55:54.317Z,37.44
2023-07-26T04:56:24.311Z,37.37
2023-07-26T04:56:54.316Z,37.61
2023-07-26T04:57:24.318Z,37.9
2023-07-26T04:57:54.315Z,37.46
2023-07-26T04:58:24.312Z,36.7
2023-07-26T04:58:54.319Z,35.6
2023-07-26T04:59:24.317Z,34.76
2023-07-26T04:59:54.321Z,34.17
2023-07-26T05:00:24.325Z,33.63
2023-07-26T05:00:54.338Z,33.31
2023-07-26T05:01:24.375Z,33.25
2023-07-26T05:01:54.454Z,33.31
2023-07-26T05:02:24.394Z,33.37
2023-07-26T05:02:54.346Z,33.55
2023-07-26T05:03:24.318Z,33.57
2023-07-26T05:03:54.364Z,33.56
2023-07-26T05:04:24.347Z,33.35
2023-07-26T05:04:54.315Z,32.95
2023-07-26T05:05:24.329Z,32.59
2023-07-26T05:05:54.339Z,32.41
2023-07-26T05:06:24.323Z,32.41
2023-07-26T05:06:54.537Z,32.48
2023-07-26T05:07:24.320Z,32.53
2023-07-26T05:07:54.326Z,32.46
2023-07-26T05:08:24.317Z,32.27
2023-07-26T05:08:54.320Z,31.95
2023-07-26T05:09:24.319Z,31.67
2023-07-26T05:09:54.322Z,31.36
2023-07-26T05:10:24.318Z,31.02
2023-07-26T05:10:54.331Z,30.67
2023-07-26T05:11:24.382Z,30.43
2023-07-26T05:11:54.523Z,30.46
2023-07-26T05:12:24.318Z,30.52
2023-07-26T05:12:54.326Z,30.7
2023-07-26T05:13:24.350Z,30.88
2023-07-26T05:13:54.314Z,30.92
2023-07-26T05:14:24.325Z,30.91
2023-07-26T05:14:54.317Z,30.84
2023-07-26T05:15:24.319Z,30.81
2023-07-26T05:15:54.318Z,31.14
2023-07-26T05:16:24.346Z,31.76
2023-07-26T05:16:54.752Z,32.27
2023-07-26T05:17:24.319Z,32.59
2023-07-26T05:17:54.339Z,32.5
2023-07-26T05:18:24.323Z,32.23
2023-07-26T05:18:54.339Z,31.85
2023-07-26T05:19:24.329Z,31.52
2023-07-26T05:19:54.322Z,31.2
2023-07-26T05:20:24.321Z,30.89
2023-07-26T05:20:54.341Z,30.66
2023-07-26T05:21:24.326Z,30.4
2023-07-26T05:21:54.480Z,30.27
2023-07-26T05:22:24.323Z,30.32
2023-07-26T05:22:54.344Z,30.39
2023-07-26T05:23:24.328Z,30.6
2023-07-26T05:23:54.337Z,30.77
2023-07-26T05:24:24.370Z,30.85
2023-07-26T05:24:54.371Z,30.93
2023-07-26T05:25:24.322Z,30.93
2023-07-26T05:25:54.339Z,30.86
2023-07-26T05:26:24.326Z,30.76
2023-07-26T05:26:54.598Z,30.65
2023-07-26T05:27:24.333Z,30.64
2023-07-26T05:27:54.328Z,30.67
2023-07-26T05:28:24.327Z,30.51
2023-07-26T05:28:54.325Z,30.21
2023-07-26T05:29:24.322Z,30.04
2023-07-26T05:29:54.362Z,30.01
2023-07-26T05:30:24.333Z,30.12
2023-07-26T05:30:54.381Z,30.16
2023-07-26T05:31:24.345Z,30.25
2023-07-26T05:31:54.481Z,30.52
2023-07-26T05:32:24.353Z,30.83
2023-07-26T05:32:54.419Z,31.01
2023-07-26T05:33:24.327Z,30.99
2023-07-26T05:33:54.329Z,30.84
2023-07-26T05:34:24.339Z,30.74
2023-07-26T05:34:54.330Z,30.66
2023-07-26T05:35:24.325Z,30.62
2023-07-26T05:35:54.345Z,30.73
2023-07-26T05:36:24.337Z,30.85
2023-07-26T05:36:54.555Z,31.08
2023-07-26T05:37:25.471Z,31.36
2023-07-26T05:37:54.342Z,31.69
2023-07-26T05:38:24.332Z,32.13
2023-07-26T05:38:54.332Z,32.49
2023-07-26T05:39:24.328Z,32.83
2023-07-26T05:39:54.329Z,32.89
2023-07-26T05:40:24.335Z,32.93
2023-07-26T05:40:54.330Z,32.84
2023-07-26T05:41:24.330Z,32.66
2023-07-26T05:41:54.611Z,32.53
2023-07-26T05:42:24.335Z,32.42
2023-07-26T05:42:54.335Z,32.24
2023-07-26T05:43:24.334Z,32.15
2023-07-26T05:43:54.343Z,32.12
2023-07-26T05:44:24.332Z,31.9
2023-07-26T05:44:54.332Z,31.81
2023-07-26T05:45:24.337Z,31.79
2023-07-26T05:45:54.332Z,31.86
2023-07-26T05:46:24.374Z,32.03
2023-07-26T05:46:54.477Z,32.03
2023-07-26T05:47:24.390Z,31.91
2023-07-26T05:47:54.370Z,31.66
2023-07-26T05:48:24.331Z,31.5
2023-07-26T05:48:54.340Z,31.52
2023-07-26T05:49:24.347Z,31.7
2023-07-26T05:49:54.346Z,31.94
2023-07-26T05:50:25.868Z,32.11
2023-07-26T05:50:54.338Z,32.31
2023-07-26T05:51:24.338Z,32.55
2023-07-26T05:51:54.393Z,32.81
2023-07-26T05:52:24.341Z,32.87
2023-07-26T05:52:54.344Z,32.95
2023-07-26T05:53:24.342Z,33.04
2023-07-26T05:53:54.346Z,32.91
2023-07-26T05:54:24.359Z,32.78
2023-07-26T05:54:54.341Z,32.74
2023-07-26T05:55:24.355Z,32.79
2023-07-26T05:55:54.343Z,32.97
2023-07-26T05:56:24.338Z,33.19
2023-07-26T05:56:54.512Z,33.31
2023-07-26T05:57:24.336Z,33.38
2023-07-26T05:57:54.336Z,33.36
2023-07-26T05:58:24.345Z,33.19
2023-07-26T05:58:54.360Z,33.45
2023-07-26T05:59:24.343Z,33.81
2023-07-26T05:59:54.334Z,33.88
2023-07-26T06:00:24.337Z,33.81
2023-07-26T06:00:54.340Z,34.01
2023-07-26T06:01:24.404Z,34.39
2023-07-26T06:01:54.522Z,34.97
2023-07-26T06:02:24.341Z,35.91
2023-07-26T06:02:54.381Z,36.79
2023-07-26T06:03:24.344Z,37.3
2023-07-26T06:03:54.337Z,37.9
2023-07-26T06:04:24.362Z,38.63
2023-07-26T06:04:54.382Z,39.05
2023-07-26T06:05:24.339Z,39.8
2023-07-26T06:05:54.381Z,40.92
2023-07-26T06:06:24.407Z,41.85
2023-07-26T06:06:54.448Z,42.62
2023-07-26T06:07:24.360Z,43.62
2023-07-26T06:07:54.351Z,44.43
2023-07-26T06:08:24.349Z,45.51
2023-07-26T06:08:54.358Z,46.14
2023-07-26T06:09:24.372Z,46.42
2023-07-26T06:09:54.349Z,46.8
2023-07-26T06:10:24.374Z,46.16
2023-07-26T06:10:54.355Z,45.71
2023-07-26T06:11:24.342Z,45.48
2023-07-26T06:11:57.178Z,45.07
2023-07-26T06:12:25.421Z,44.79
2023-07-26T06:12:54.342Z,44.52
2023-07-26T06:13:24.362Z,44.39
2023-07-26T06:13:54.401Z,44.56
2023-07-26T06:14:24.351Z,45.02
2023-07-26T06:14:54.365Z,45.77
2023-07-26T06:15:24.352Z,46.14
2023-07-26T06:15:54.349Z,46.85
2023-07-26T06:16:24.375Z,47.42
2023-07-26T06:16:54.652Z,48
2023-07-26T06:17:24.416Z,48.85
2023-07-26T06:17:54.367Z,49.4
2023-07-26T06:18:24.351Z,49.68
2023-07-26T06:18:54.350Z,49.81
2023-07-26T06:19:24.766Z,49.81
2023-07-26T06:19:54.361Z,49.89
2023-07-26T06:20:24.350Z,50.07
2023-07-26T06:20:54.384Z,50.2
2023-07-26T06:21:24.354Z,49.7
2023-07-26T06:21:54.353Z,48.81
2023-07-26T06:22:24.354Z,47.88
2023-07-26T06:22:54.365Z,47.01
2023-07-26T06:23:24.350Z,46.45
2023-07-26T06:23:54.350Z,46.13
2023-07-26T06:24:24.378Z,45.82
2023-07-26T06:24:54.370Z,45.97
2023-07-26T06:25:24.363Z,46.01
2023-07-26T06:25:54.357Z,45.84
2023-07-26T06:26:24.353Z,45.66
2023-07-26T06:26:54.364Z,45.46
2023-07-26T06:27:24.361Z,45.09
2023-07-26T06:27:54.363Z,44.79